Persia, Iowa
Current Conditions -  °F | °C
As of 10:15 AM on Friday 24 Oct 2014 (Local Time) from KHNR Reporting Station
Haze Haze  
Wind Chill: 61°   Ceiling: 500
Heat Index: 61°   Visibility: 2.5mi
Dew Point: 61°   Wind: 9mph
Humidity: 100%   Direction: 210°SSW
Pressure: 29.98"   Gusts: 16mph
Location:  41.58°N, 95.57°W
Report Text: KHNR 241515Z AUTO 21008G14KT 2 1/2SM BR OVC005 16/16 A2998 RMK AO2
Loading
Personal Weather Stations






























Interactive Weather Map
Tropical Storm Tracking
New forecast layout! Learn more

10-Day Weather Forecast

Advertisements
Track Severe Weather on mobile